createdAt,value
2022-11-08T00:00:03.256Z,8.93
2022-11-08T00:05:26.884Z,8.98
2022-11-08T00:10:49.277Z,9.09
2022-11-08T00:15:52.887Z,9.04
2022-11-08T00:20:56.483Z,9.09
2022-11-08T00:26:00.185Z,9.04
2022-11-08T00:31:07.242Z,8.99
2022-11-08T00:36:10.933Z,9.10
2022-11-08T00:41:14.425Z,9.22
2022-11-08T00:46:18.406Z,9.35
2022-11-08T00:51:22.086Z,9.41
2022-11-08T00:56:26.503Z,9.42
2022-11-08T01:01:33.352Z,9.38
2022-11-08T01:06:36.475Z,9.34
2022-11-08T01:11:45.586Z,9.23
2022-11-08T01:16:49.150Z,9.15
2022-11-08T01:21:52.614Z,9.14
2022-11-08T01:26:56.041Z,9.13
2022-11-08T01:31:59.078Z,8.95
2022-11-08T01:37:02.795Z,8.78
2022-11-08T01:42:06.109Z,8.60
2022-11-08T01:47:09.562Z,8.41
2022-11-08T01:52:17.660Z,8.22
2022-11-08T01:57:31.645Z,8.00
2022-11-08T02:02:36.774Z,7.86
2022-11-08T02:07:39.949Z,7.81
2022-11-08T02:12:43.963Z,7.69
2022-11-08T02:17:47.659Z,7.62
2022-11-08T02:23:14.528Z,7.48
2022-11-08T02:28:18.270Z,7.39
2022-11-08T02:33:23.774Z,7.35
2022-11-08T02:38:27.708Z,7.29
2022-11-08T02:43:31.900Z,7.23
2022-11-08T02:48:34.901Z,7.14
2022-11-08T02:53:38.722Z,7.15
2022-11-08T02:58:42.348Z,7.16
2022-11-08T03:03:45.825Z,6.99
2022-11-08T03:08:49.686Z,6.92
2022-11-08T03:13:52.751Z,6.85
2022-11-08T03:18:56.294Z,6.89
2022-11-08T03:23:59.310Z,6.87
2022-11-08T03:29:02.845Z,6.71
2022-11-08T03:34:06.248Z,6.69
2022-11-08T03:39:11.300Z,6.51
2022-11-08T03:44:14.853Z,6.54
2022-11-08T03:49:17.805Z,6.46
2022-11-08T03:54:21.679Z,6.43
2022-11-08T03:59:24.620Z,6.30
2022-11-08T04:04:28.159Z,6.38
2022-11-08T04:09:31.514Z,6.40
2022-11-08T04:14:53.772Z,6.46
2022-11-08T04:20:16.516Z,6.43
2022-11-08T04:25:20.597Z,6.28
2022-11-08T04:30:25.508Z,6.21
2022-11-08T04:35:30.395Z,6.18
2022-11-08T04:40:33.526Z,5.92
2022-11-08T04:45:37.398Z,6.09
2022-11-08T04:50:41.056Z,6.09
2022-11-08T04:55:44.449Z,5.95
2022-11-08T05:00:47.921Z,5.78
2022-11-08T05:05:53.985Z,5.69
2022-11-08T05:11:05.192Z,5.76
2022-11-08T05:16:12.769Z,5.76
2022-11-08T05:21:37.119Z,5.80
2022-11-08T05:26:42.833Z,5.77
2022-11-08T05:31:46.812Z,5.80
2022-11-08T05:36:50.417Z,5.84
2022-11-08T05:41:54.337Z,5.91
2022-11-08T05:46:57.873Z,5.93
2022-11-08T05:52:01.433Z,6.06
2022-11-08T05:57:05.111Z,6.21
2022-11-08T06:02:08.833Z,6.44
2022-11-08T06:07:13.053Z,6.68
2022-11-08T06:12:16.222Z,6.86
2022-11-08T06:17:19.784Z,7.11
2022-11-08T06:22:24.125Z,7.65
2022-11-08T06:27:28.070Z,8.54
2022-11-08T06:32:31.699Z,12.00
2022-11-08T06:37:35.261Z,15.62
2022-11-08T06:42:38.467Z,18.70
2022-11-08T06:47:41.923Z,20.29
2022-11-08T06:52:45.593Z,21.32
2022-11-08T06:57:49.673Z,21.91
2022-11-08T07:02:54.760Z,22.11
2022-11-08T07:07:59.901Z,21.80
2022-11-08T07:13:11.350Z,20.66
2022-11-08T07:18:16.467Z,20.80
2022-11-08T07:23:20.693Z,21.68
2022-11-08T07:28:23.813Z,21.71
2022-11-08T07:33:27.942Z,21.91
2022-11-08T07:38:31.879Z,22.37
2022-11-08T07:43:35.524Z,19.95
2022-11-08T07:48:52.403Z,21.22
2022-11-08T07:54:00.393Z,19.84
2022-11-08T07:59:06.050Z,21.65
2022-11-08T08:04:12.386Z,20.69
2022-11-08T08:09:15.498Z,19.86
2022-11-08T08:14:19.534Z,20.96
2022-11-08T08:19:22.692Z,18.74
2022-11-08T08:24:26.901Z,17.85
2022-11-08T08:29:30.040Z,18.72
2022-11-08T08:34:33.699Z,22.45
2022-11-08T08:39:36.864Z,21.89
2022-11-08T08:44:39.962Z,22.14
2022-11-08T08:49:43.314Z,22.19
2022-11-08T08:54:46.957Z,22.83
2022-11-08T09:05:14.742Z,22.67
2022-11-08T09:10:18.339Z,22.26
2022-11-08T09:15:22.194Z,23.14
2022-11-08T09:20:26.501Z,22.88
2022-11-08T09:25:30.031Z,22.60
2022-11-08T09:30:33.517Z,22.14
2022-11-08T09:35:37.267Z,22.35
2022-11-08T09:40:54.286Z,22.54
2022-11-08T09:46:03.287Z,22.56
2022-11-08T09:51:22.210Z,22.47
2022-11-08T09:56:30.164Z,22.32
2022-11-08T10:01:35.941Z,22.47
2022-11-08T10:06:47.918Z,21.92
2022-11-08T10:11:55.056Z,22.05
2022-11-08T10:17:30.251Z,21.25
2022-11-08T10:22:54.901Z,19.99
2022-11-08T10:28:01.922Z,20.86
2022-11-08T10:33:38.131Z,21.18
2022-11-08T10:39:03.979Z,21.33
2022-11-08T10:44:07.122Z,20.32
2022-11-08T10:49:29.807Z,20.86
2022-11-08T10:54:46.915Z,20.41
2022-11-08T10:59:51.257Z,20.26
2022-11-08T11:05:14.240Z,20.10
2022-11-08T11:10:34.131Z,20.07
2022-11-08T11:15:53.385Z,20.35
2022-11-08T11:21:16.942Z,20.65
2022-11-08T11:26:29.008Z,20.31
2022-11-08T11:31:42.777Z,20.79
2022-11-08T11:37:06.327Z,20.76
2022-11-08T11:42:43.881Z,20.71
2022-11-08T11:47:48.145Z,20.79
2022-11-08T11:52:51.775Z,21.10
2022-11-08T11:58:37.170Z,21.58
2022-11-08T12:04:11.044Z,21.70
2022-11-08T12:09:38.334Z,21.43
2022-11-08T12:14:49.215Z,21.55
2022-11-08T12:20:27.173Z,21.78
2022-11-08T12:25:49.071Z,22.35
2022-11-08T12:31:03.206Z,21.78
2022-11-08T12:36:23.529Z,22.29
2022-11-08T12:41:35.081Z,22.60
2022-11-08T12:47:05.344Z,22.84
2022-11-08T12:52:28.173Z,22.57
2022-11-08T12:57:32.792Z,22.70
2022-11-08T13:02:41.168Z,22.71
2022-11-08T13:08:09.120Z,22.80
2022-11-08T13:13:31.432Z,22.43
2022-11-08T13:18:36.780Z,22.52
2022-11-08T13:23:40.190Z,22.75
2022-11-08T13:28:45.112Z,22.80
2022-11-08T13:34:13.512Z,22.71
2022-11-08T13:39:42.073Z,22.81
2022-11-08T13:44:59.336Z,22.56
2022-11-08T13:50:30.455Z,22.53
2022-11-08T13:55:42.764Z,22.68
2022-11-08T14:00:47.189Z,22.45
2022-11-08T14:05:51.110Z,22.54
2022-11-08T14:11:31.330Z,22.30
2022-11-08T14:17:06.168Z,22.86
2022-11-08T14:22:30.743Z,22.47
2022-11-08T14:27:39.845Z,22.37
2022-11-08T14:32:44.843Z,22.07
2022-11-08T14:37:48.529Z,20.47
2022-11-08T14:42:52.216Z,21.45
2022-11-08T14:48:04.423Z,20.31
2022-11-08T14:53:31.934Z,19.07
2022-11-08T14:58:35.932Z,17.58
2022-11-08T15:03:52.006Z,17.40
2022-11-08T15:08:56.294Z,17.09
2022-11-08T15:14:07.111Z,16.69
2022-11-08T15:19:27.839Z,16.30
2022-11-08T15:24:38.645Z,15.98
2022-11-08T15:30:00.009Z,15.80
2022-11-08T15:35:04.508Z,15.76
2022-11-08T15:40:20.329Z,15.24
2022-11-08T15:45:32.490Z,14.88
2022-11-08T15:50:36.959Z,14.53
2022-11-08T15:55:47.659Z,14.15
2022-11-08T16:00:50.855Z,13.79
2022-11-08T16:05:55.052Z,13.45
2022-11-08T16:11:00.443Z,13.18
2022-11-08T16:16:10.359Z,12.96
2022-11-08T16:21:14.515Z,12.76
2022-11-08T16:26:21.074Z,12.45
2022-11-08T16:31:24.219Z,12.26
2022-11-08T16:36:28.329Z,12.24
2022-11-08T16:41:32.200Z,12.52
2022-11-08T16:46:35.682Z,12.65
2022-11-08T16:51:39.684Z,12.78
2022-11-08T16:56:42.714Z,12.94
2022-11-08T17:01:48.469Z,13.05
2022-11-08T17:06:52.147Z,13.11
2022-11-08T17:11:55.627Z,13.17
2022-11-08T17:16:59.786Z,13.15
2022-11-08T17:22:03.778Z,13.15
2022-11-08T17:27:07.665Z,13.10
2022-11-08T17:32:10.951Z,13.12
2022-11-08T17:37:17.001Z,12.86
2022-11-08T17:42:20.345Z,12.56
2022-11-08T17:47:27.915Z,12.43
2022-11-08T17:52:31.926Z,12.54
2022-11-08T17:57:35.429Z,12.66
2022-11-08T18:02:39.103Z,12.76
2022-11-08T18:07:43.058Z,12.81
2022-11-08T18:12:46.728Z,12.73
2022-11-08T18:17:50.555Z,12.70
2022-11-08T18:22:53.963Z,12.70
2022-11-08T18:27:57.997Z,12.61
2022-11-08T18:33:01.767Z,12.60
2022-11-08T18:38:05.814Z,12.55
2022-11-08T18:43:09.557Z,12.53
2022-11-08T18:48:12.569Z,12.50
2022-11-08T18:53:16.985Z,12.41
2022-11-08T18:58:20.701Z,12.38
2022-11-08T19:03:25.176Z,12.13
2022-11-08T19:08:30.848Z,11.85
2022-11-08T19:13:35.764Z,11.65
2022-11-08T19:18:42.996Z,11.59
2022-11-08T19:23:48.312Z,11.53
2022-11-08T19:28:55.427Z,11.49
2022-11-08T19:33:59.215Z,11.24
2022-11-08T19:39:03.245Z,11.01
2022-11-08T19:44:07.828Z,10.82
2022-11-08T19:49:11.907Z,10.61
2022-11-08T19:54:16.156Z,10.42
2022-11-08T19:59:20.604Z,10.22
2022-11-08T20:04:23.804Z,10.17
2022-11-08T20:09:30.835Z,9.99
2022-11-08T20:14:38.328Z,9.88
2022-11-08T20:19:42.505Z,9.76
2022-11-08T20:24:48.893Z,9.72
2022-11-08T20:29:52.643Z,9.69
2022-11-08T20:34:58.718Z,9.51
2022-11-08T20:40:02.344Z,9.42
2022-11-08T20:45:10.699Z,9.31
2022-11-08T20:50:18.592Z,9.23
2022-11-08T20:55:27.317Z,9.09
2022-11-08T21:00:56.906Z,9.05
2022-11-08T21:06:03.364Z,9.02
2022-11-08T21:11:12.000Z,9.28
2022-11-08T21:16:29.912Z,9.53
2022-11-08T21:21:36.853Z,9.70
2022-11-08T21:26:41.027Z,9.93
2022-11-08T21:31:46.050Z,10.17
2022-11-08T21:36:50.370Z,10.20
2022-11-08T21:41:53.924Z,10.05
2022-11-08T21:46:57.467Z,10.00
2022-11-08T21:52:02.418Z,9.76
2022-11-08T21:57:06.504Z,9.49
2022-11-08T22:02:10.826Z,9.49
2022-11-08T22:07:13.982Z,9.42
2022-11-08T22:12:17.181Z,9.47
2022-11-08T22:17:22.044Z,9.61
2022-11-08T22:22:26.235Z,9.49
2022-11-08T22:27:29.817Z,9.49
2022-11-08T22:32:33.296Z,9.40
2022-11-08T22:37:37.090Z,9.42
2022-11-08T22:42:40.828Z,9.67
2022-11-08T22:47:45.197Z,9.72
2022-11-08T22:52:49.992Z,9.99
2022-11-08T22:57:54.023Z,10.20
2022-11-08T23:02:57.551Z,10.20
2022-11-08T23:08:01.405Z,9.98
2022-11-08T23:13:23.673Z,9.69
2022-11-08T23:18:28.434Z,9.41
2022-11-08T23:23:50.856Z,9.28
2022-11-08T23:29:12.885Z,9.23
2022-11-08T23:34:16.553Z,9.20
2022-11-08T23:39:20.420Z,9.16
2022-11-08T23:44:24.199Z,9.15
2022-11-08T23:49:28.953Z,9.13
2022-11-08T23:54:32.560Z,9.18
2022-11-08T23:59:36.171Z,9.25
